sensor_id;sensor_type;location;lat;lon;timestamp;pressure;altitude;pressure_sealevel;temperature;humidity
5413;BME280;2729;50.056;8.678;2022-11-13T00:02:25;101510.13;;;7.20;100.00
5413;BME280;2729;50.056;8.678;2022-11-13T00:05:10;101509.06;;;6.96;100.00
5413;BME280;2729;50.056;8.678;2022-11-13T00:07:54;101507.44;;;7.07;100.00
5413;BME280;2729;50.056;8.678;2022-11-13T00:10:39;101503.97;;;7.10;100.00
5413;BME280;2729;50.056;8.678;2022-11-13T00:13:24;101504.13;;;7.27;100.00
5413;BME280;2729;50.056;8.678;2022-11-13T00:16:11;101500.75;;;7.37;100.00
5413;BME280;2729;50.056;8.678;2022-11-13T00:18:56;101501.72;;;7.50;100.00
5413;BME280;2729;50.056;8.678;2022-11-13T00:21:40;101493.78;;;7.33;100.00
5413;BME280;2729;50.056;8.678;2022-11-13T00:24:25;101487.69;;;7.26;100.00
5413;BME280;2729;50.056;8.678;2022-11-13T00:27:09;101479.75;;;7.08;100.00
5413;BME280;2729;50.056;8.678;2022-11-13T00:29:54;101480.63;;;7.12;100.00
5413;BME280;2729;50.056;8.678;2022-11-13T00:32:38;101476.44;;;7.26;100.00
5413;BME280;2729;50.056;8.678;2022-11-13T00:35:23;101485.00;;;7.17;100.00
5413;BME280;2729;50.056;8.678;2022-11-13T00:38:07;101485.88;;;7.18;100.00
5413;BME280;2729;50.056;8.678;2022-11-13T00:40:52;101477.22;;;7.17;100.00
5413;BME280;2729;50.056;8.678;2022-11-13T00:43:37;101472.03;;;7.17;100.00
5413;BME280;2729;50.056;8.678;2022-11-13T00:46:21;101480.66;;;7.13;100.00
5413;BME280;2729;50.056;8.678;2022-11-13T00:49:05;101479.84;;;7.22;100.00
5413;BME280;2729;50.056;8.678;2022-11-13T00:51:49;101479.78;;;7.11;100.00
5413;BME280;2729;50.056;8.678;2022-11-13T00:54:34;101471.88;;;6.99;100.00
5413;BME280;2729;50.056;8.678;2022-11-13T00:57:18;101470.94;;;6.91;100.00
5413;BME280;2729;50.056;8.678;2022-11-13T01:00:03;101473.50;;;6.89;100.00
5413;BME280;2729;50.056;8.678;2022-11-13T01:02:47;101474.44;;;6.94;100.00
5413;BME280;2729;50.056;8.678;2022-11-13T01:05:36;101470.91;;;6.89;100.00
5413;BME280;2729;50.056;8.678;2022-11-13T01:08:21;101468.25;;;6.82;100.00
5413;BME280;2729;50.056;8.678;2022-11-13T01:11:14;101457.78;;;6.72;100.00
5413;BME280;2729;50.056;8.678;2022-11-13T01:13:59;101459.63;;;6.83;100.00
5413;BME280;2729;50.056;8.678;2022-11-13T01:16:43;101455.41;;;6.95;100.00
5413;BME280;2729;50.056;8.678;2022-11-13T01:19:27;101454.38;;;6.76;100.00
5413;BME280;2729;50.056;8.678;2022-11-13T01:22:12;101451.06;;;6.93;100.00
5413;BME280;2729;50.056;8.678;2022-11-13T01:24:56;101445.78;;;6.84;100.00
5413;BME280;2729;50.056;8.678;2022-11-13T01:27:41;101453.63;;;6.90;100.00
5413;BME280;2729;50.056;8.678;2022-11-13T01:30:25;101453.38;;;6.65;100.00
5413;BME280;2729;50.056;8.678;2022-11-13T01:33:10;101452.06;;;6.24;100.00
5413;BME280;2729;50.056;8.678;2022-11-13T01:35:59;101450.66;;;6.52;100.00
5413;BME280;2729;50.056;8.678;2022-11-13T01:38:44;101441.31;;;6.69;100.00
5413;BME280;2729;50.056;8.678;2022-11-13T01:41:31;101435.16;;;6.56;100.00
5413;BME280;2729;50.056;8.678;2022-11-13T01:44:18;101434.44;;;6.74;100.00
5413;BME280;2729;50.056;8.678;2022-11-13T01:47:02;101427.53;;;6.74;100.00
5413;BME280;2729;50.056;8.678;2022-11-13T01:49:50;101430.03;;;6.65;100.00
5413;BME280;2729;50.056;8.678;2022-11-13T01:52:37;101427.56;;;6.76;100.00
5413;BME280;2729;50.056;8.678;2022-11-13T01:55:24;101434.50;;;6.80;100.00
5413;BME280;2729;50.056;8.678;2022-11-13T01:58:09;101432.66;;;6.68;100.00
5413;BME280;2729;50.056;8.678;2022-11-13T02:00:54;101428.47;;;6.83;100.00
5413;BME280;2729;50.056;8.678;2022-11-13T02:03:39;101432.72;;;6.74;100.00
5413;BME280;2729;50.056;8.678;2022-11-13T02:06:25;101427.59;;;6.79;100.00
5413;BME280;2729;50.056;8.678;2022-11-13T02:09:12;101428.53;;;6.89;100.00
5413;BME280;2729;50.056;8.678;2022-11-13T02:11:58;101429.22;;;6.69;100.00
5413;BME280;2729;50.056;8.678;2022-11-13T02:14:45;101423.00;;;6.52;100.00
5413;BME280;2729;50.056;8.678;2022-11-13T02:17:34;101414.22;;;6.38;100.00
5413;BME280;2729;50.056;8.678;2022-11-13T02:20:31;101415.94;;;6.39;100.00
5413;BME280;2729;50.056;8.678;2022-11-13T02:23:52;101416.97;;;6.53;100.00
5413;BME280;2729;50.056;8.678;2022-11-13T02:26:40;101423.88;;;6.54;100.00
5413;BME280;2729;50.056;8.678;2022-11-13T02:29:24;101421.28;;;6.53;100.00
5413;BME280;2729;50.056;8.678;2022-11-13T02:32:09;101404.78;;;6.44;100.00
5413;BME280;2729;50.056;8.678;2022-11-13T02:34:53;101405.56;;;6.37;100.00
5413;BME280;2729;50.056;8.678;2022-11-13T02:37:38;101416.00;;;6.43;100.00
5413;BME280;2729;50.056;8.678;2022-11-13T02:40:23;101419.53;;;6.50;100.00
5413;BME280;2729;50.056;8.678;2022-11-13T02:43:07;101409.19;;;6.53;100.00
5413;BME280;2729;50.056;8.678;2022-11-13T02:45:52;101411.69;;;6.45;100.00
5413;BME280;2729;50.056;8.678;2022-11-13T02:48:36;101411.69;;;6.45;100.00
5413;BME280;2729;50.056;8.678;2022-11-13T02:51:21;101402.78;;;6.21;100.00
5413;BME280;2729;50.056;8.678;2022-11-13T02:54:05;101400.16;;;6.18;100.00
5413;BME280;2729;50.056;8.678;2022-11-13T02:56:50;101402.91;;;6.31;100.00
5413;BME280;2729;50.056;8.678;2022-11-13T02:59:34;101406.38;;;6.33;100.00
5413;BME280;2729;50.056;8.678;2022-11-13T03:02:18;101396.78;;;6.23;100.00
5413;BME280;2729;50.056;8.678;2022-11-13T03:05:03;101400.16;;;6.16;100.00
5413;BME280;2729;50.056;8.678;2022-11-13T03:07:48;101390.59;;;6.12;100.00
5413;BME280;2729;50.056;8.678;2022-11-13T03:10:33;101389.63;;;6.04;100.00
5413;BME280;2729;50.056;8.678;2022-11-13T03:13:17;101378.50;;;6.11;100.00
5413;BME280;2729;50.056;8.678;2022-11-13T03:16:20;101379.53;;;6.27;100.00
5413;BME280;2729;50.056;8.678;2022-11-13T03:19:05;101380.22;;;6.12;100.00
5413;BME280;2729;50.056;8.678;2022-11-13T03:21:49;101384.47;;;6.05;100.00
5413;BME280;2729;50.056;8.678;2022-11-13T03:24:34;101379.44;;;6.18;100.00
5413;BME280;2729;50.056;8.678;2022-11-13T03:27:19;101380.19;;;6.07;100.00
5413;BME280;2729;50.056;8.678;2022-11-13T03:30:04;101381.88;;;6.05;100.00
5413;BME280;2729;50.056;8.678;2022-11-13T03:32:54;101377.63;;;6.12;100.00
5413;BME280;2729;50.056;8.678;2022-11-13T03:35:38;101378.53;;;6.14;100.00
5413;BME280;2729;50.056;8.678;2022-11-13T03:38:23;101374.22;;;6.15;100.00
5413;BME280;2729;50.056;8.678;2022-11-13T03:41:07;101377.53;;;6.01;100.00
5413;BME280;2729;50.056;8.678;2022-11-13T03:43:52;101379.06;;;5.89;100.00
5413;BME280;2729;50.056;8.678;2022-11-13T03:46:36;101374.94;;;6.03;100.00
5413;BME280;2729;50.056;8.678;2022-11-13T03:49:21;101374.03;;;5.99;100.00
5413;BME280;2729;50.056;8.678;2022-11-13T03:52:05;101371.56;;;6.10;100.00
5413;BME280;2729;50.056;8.678;2022-11-13T03:54:50;101367.28;;;6.13;100.00
5413;BME280;2729;50.056;8.678;2022-11-13T03:57:34;101373.19;;;6.00;100.00
5413;BME280;2729;50.056;8.678;2022-11-13T04:00:19;101370.47;;;5.90;100.00
5413;BME280;2729;50.056;8.678;2022-11-13T04:03:03;101367.19;;;6.04;100.00
5413;BME280;2729;50.056;8.678;2022-11-13T04:05:48;101363.72;;;6.04;100.00
5413;BME280;2729;50.056;8.678;2022-11-13T04:08:32;101355.88;;;5.98;100.00
5413;BME280;2729;50.056;8.678;2022-11-13T04:11:17;101350.66;;;5.93;100.00
5413;BME280;2729;50.056;8.678;2022-11-13T04:14:01;101352.25;;;5.85;100.00
5413;BME280;2729;50.056;8.678;2022-11-13T04:16:46;101345.31;;;5.82;100.00
5413;BME280;2729;50.056;8.678;2022-11-13T04:19:30;101345.28;;;5.81;100.00
5413;BME280;2729;50.056;8.678;2022-11-13T04:22:14;101339.19;;;5.76;100.00
5413;BME280;2729;50.056;8.678;2022-11-13T04:24:59;101335.72;;;5.74;100.00
5413;BME280;2729;50.056;8.678;2022-11-13T04:27:43;101338.44;;;5.85;100.00
5413;BME280;2729;50.056;8.678;2022-11-13T04:30:28;101335.81;;;5.81;100.00
5413;BME280;2729;50.056;8.678;2022-11-13T04:33:12;101330.56;;;5.77;100.00
5413;BME280;2729;50.056;8.678;2022-11-13T04:35:57;101330.41;;;5.63;100.00
5413;BME280;2729;50.056;8.678;2022-11-13T04:38:41;101323.50;;;5.62;100.00
5413;BME280;2729;50.056;8.678;2022-11-13T04:41:25;101321.63;;;5.52;100.00
5413;BME280;2729;50.056;8.678;2022-11-13T04:44:29;101316.50;;;5.55;100.00
5413;BME280;2729;50.056;8.678;2022-11-13T04:47:13;101313.84;;;5.49;100.00
5413;BME280;2729;50.056;8.678;2022-11-13T04:49:58;101312.75;;;5.32;100.00
5413;BME280;2729;50.056;8.678;2022-11-13T04:52:42;101312.06;;;5.46;100.00
5413;BME280;2729;50.056;8.678;2022-11-13T04:55:27;101318.19;;;5.53;100.00
5413;BME280;2729;50.056;8.678;2022-11-13T04:58:11;101310.53;;;5.61;100.00
5413;BME280;2729;50.056;8.678;2022-11-13T05:00:56;101314.56;;;5.37;100.00
5413;BME280;2729;50.056;8.678;2022-11-13T05:03:40;101307.72;;;5.42;100.00
5413;BME280;2729;50.056;8.678;2022-11-13T05:06:25;101304.97;;;5.32;100.00
5413;BME280;2729;50.056;8.678;2022-11-13T05:09:09;101300.63;;;5.29;100.00
5413;BME280;2729;50.056;8.678;2022-11-13T05:11:54;101307.44;;;5.21;100.00
5413;BME280;2729;50.056;8.678;2022-11-13T05:14:39;101302.28;;;5.23;100.00
5413;BME280;2729;50.056;8.678;2022-11-13T05:17:24;101299.50;;;5.10;100.00
5413;BME280;2729;50.056;8.678;2022-11-13T05:20:09;101299.31;;;4.98;100.00
5413;BME280;2729;50.056;8.678;2022-11-13T05:22:53;101289.72;;;4.90;100.00
5413;BME280;2729;50.056;8.678;2022-11-13T05:25:38;101287.22;;;4.97;100.00
5413;BME280;2729;50.056;8.678;2022-11-13T05:28:24;101282.19;;;5.06;100.00
5413;BME280;2729;50.056;8.678;2022-11-13T05:31:12;101277.75;;;4.98;100.00
5413;BME280;2729;50.056;8.678;2022-11-13T05:33:56;101279.38;;;4.90;100.00
5413;BME280;2729;50.056;8.678;2022-11-13T05:36:41;101284.22;;;4.68;100.00
5413;BME280;2729;50.056;8.678;2022-11-13T05:39:25;101270.47;;;4.71;100.00
5413;BME280;2729;50.056;8.678;2022-11-13T05:42:09;101268.88;;;4.79;100.00
5413;BME280;2729;50.056;8.678;2022-11-13T05:44:54;101267.81;;;4.66;100.00
5413;BME280;2729;50.056;8.678;2022-11-13T05:47:38;101267.75;;;4.63;100.00
5413;BME280;2729;50.056;8.678;2022-11-13T05:50:23;101265.81;;;4.48;100.00
5413;BME280;2729;50.056;8.678;2022-11-13T05:53:07;101277.22;;;4.61;100.00
5413;BME280;2729;50.056;8.678;2022-11-13T05:55:52;101271.16;;;4.59;100.00
5413;BME280;2729;50.056;8.678;2022-11-13T05:58:37;101272.22;;;4.72;100.00
5413;BME280;2729;50.056;8.678;2022-11-13T06:01:30;101266.84;;;4.60;100.00
5413;BME280;2729;50.056;8.678;2022-11-13T06:04:15;101267.72;;;4.60;100.00
5413;BME280;2729;50.056;8.678;2022-11-13T06:06:59;101268.41;;;4.48;100.00
5413;BME280;2729;50.056;8.678;2022-11-13T06:09:44;101256.34;;;4.49;100.00
5413;BME280;2729;50.056;8.678;2022-11-13T06:12:29;101246.88;;;4.49;100.00
5413;BME280;2729;50.056;8.678;2022-11-13T06:15:14;101237.56;;;4.61;100.00
5413;BME280;2729;50.056;8.678;2022-11-13T06:17:58;101245.09;;;4.45;100.00
5413;BME280;2729;50.056;8.678;2022-11-13T06:20:43;101236.41;;;4.40;100.00
5413;BME280;2729;50.056;8.678;2022-11-13T06:23:28;101233.13;;;4.52;100.00
5413;BME280;2729;50.056;8.678;2022-11-13T06:26:16;101226.28;;;4.56;100.00
5413;BME280;2729;50.056;8.678;2022-11-13T06:29:03;101231.38;;;4.51;100.00
5413;BME280;2729;50.056;8.678;2022-11-13T06:31:47;101234.63;;;4.38;100.00
5413;BME280;2729;50.056;8.678;2022-11-13T06:34:31;101221.56;;;4.29;100.00
5413;BME280;2729;50.056;8.678;2022-11-13T06:37:16;101226.84;;;4.36;100.00
5413;BME280;2729;50.056;8.678;2022-11-13T06:40:00;101223.53;;;4.45;100.00
5413;BME280;2729;50.056;8.678;2022-11-13T06:42:45;101231.44;;;4.54;100.00
5413;BME280;2729;50.056;8.678;2022-11-13T06:45:29;101220.28;;;4.57;100.00
5413;BME280;2729;50.056;8.678;2022-11-13T06:48:13;101223.72;;;4.57;100.00
5413;BME280;2729;50.056;8.678;2022-11-13T06:51:03;101226.25;;;4.52;100.00
5413;BME280;2729;50.056;8.678;2022-11-13T06:53:48;101228.75;;;4.48;100.00
5413;BME280;2729;50.056;8.678;2022-11-13T06:56:33;101227.09;;;4.51;100.00
5413;BME280;2729;50.056;8.678;2022-11-13T06:59:17;101228.13;;;4.63;100.00
5413;BME280;2729;50.056;8.678;2022-11-13T07:02:02;101229.81;;;4.61;100.00
5413;BME280;2729;50.056;8.678;2022-11-13T07:04:46;101231.50;;;4.59;100.00
5413;BME280;2729;50.056;8.678;2022-11-13T07:07:31;101236.38;;;4.39;100.00
5413;BME280;2729;50.056;8.678;2022-11-13T07:10:15;101234.06;;;4.57;100.00
5413;BME280;2729;50.056;8.678;2022-11-13T07:13:00;101232.97;;;4.41;100.00
5413;BME280;2729;50.056;8.678;2022-11-13T07:15:44;101222.81;;;4.53;100.00
5413;BME280;2729;50.056;8.678;2022-11-13T07:18:30;101219.22;;;4.44;100.00
5413;BME280;2729;50.056;8.678;2022-11-13T07:21:14;101215.75;;;4.42;100.00
5413;BME280;2729;50.056;8.678;2022-11-13T07:23:59;101219.03;;;4.32;100.00
5413;BME280;2729;50.056;8.678;2022-11-13T07:26:43;101216.66;;;4.45;100.00
5413;BME280;2729;50.056;8.678;2022-11-13T07:29:28;101220.44;;;4.67;100.00
5413;BME280;2729;50.056;8.678;2022-11-13T07:32:12;101215.34;;;4.73;100.00
5413;BME280;2729;50.056;8.678;2022-11-13T07:34:57;101223.09;;;4.73;100.00
5413;BME280;2729;50.056;8.678;2022-11-13T07:37:42;101218.22;;;4.95;100.00
5413;BME280;2729;50.056;8.678;2022-11-13T07:40:27;101215.69;;;4.99;100.00
5413;BME280;2729;50.056;8.678;2022-11-13T07:43:12;101215.13;;;5.20;100.00
5413;BME280;2729;50.056;8.678;2022-11-13T07:45:57;101212.56;;;5.23;100.00
5413;BME280;2729;50.056;8.678;2022-11-13T07:48:42;101216.78;;;5.18;100.00
5413;BME280;2729;50.056;8.678;2022-11-13T07:51:26;101222.91;;;5.22;100.00
5413;BME280;2729;50.056;8.678;2022-11-13T07:54:11;101220.47;;;5.34;100.00
5413;BME280;2729;50.056;8.678;2022-11-13T07:56:55;101221.38;;;5.39;100.00
5413;BME280;2729;50.056;8.678;2022-11-13T07:59:40;101207.69;;;5.49;100.00
5413;BME280;2729;50.056;8.678;2022-11-13T08:02:24;101212.06;;;5.55;100.00
5413;BME280;2729;50.056;8.678;2022-11-13T08:05:08;101205.28;;;5.66;100.00
5413;BME280;2729;50.056;8.678;2022-11-13T08:07:53;101200.09;;;5.64;100.00
5413;BME280;2729;50.056;8.678;2022-11-13T08:10:37;101197.50;;;5.66;100.00
5413;BME280;2729;50.056;8.678;2022-11-13T08:13:22;101193.19;;;5.65;100.00
5413;BME280;2729;50.056;8.678;2022-11-13T08:16:06;101188.75;;;5.53;100.00
5413;BME280;2729;50.056;8.678;2022-11-13T08:18:52;101183.69;;;5.65;100.00
5413;BME280;2729;50.056;8.678;2022-11-13T08:21:36;101193.44;;;5.89;100.00
5413;BME280;2729;50.056;8.678;2022-11-13T08:24:21;101186.66;;;6.02;100.00
5413;BME280;2729;50.056;8.678;2022-11-13T08:27:05;101187.56;;;6.10;100.00
5413;BME280;2729;50.056;8.678;2022-11-13T08:29:50;101190.31;;;6.28;100.00
5413;BME280;2729;50.056;8.678;2022-11-13T08:32:35;101186.00;;;6.29;100.00
5413;BME280;2729;50.056;8.678;2022-11-13T08:35:19;101186.06;;;6.41;100.00
5413;BME280;2729;50.056;8.678;2022-11-13T08:38:06;101185.28;;;6.53;100.00
5413;BME280;2729;50.056;8.678;2022-11-13T08:40:51;101182.59;;;6.39;100.00
5413;BME280;2729;50.056;8.678;2022-11-13T08:43:39;101173.22;;;6.61;100.00
5413;BME280;2729;50.056;8.678;2022-11-13T08:46:23;101169.00;;;6.76;100.00
5413;BME280;2729;50.056;8.678;2022-11-13T08:49:08;101165.59;;;6.87;100.00
5413;BME280;2729;50.056;8.678;2022-11-13T08:51:52;101162.16;;;6.92;100.00
5413;BME280;2729;50.056;8.678;2022-11-13T08:54:37;101161.34;;;7.05;100.00
5413;BME280;2729;50.056;8.678;2022-11-13T08:57:21;101168.28;;;7.13;100.00
5413;BME280;2729;50.056;8.678;2022-11-13T09:00:06;101157.03;;;7.09;100.00
5413;BME280;2729;50.056;8.678;2022-11-13T09:02:55;101159.63;;;7.14;100.00
5413;BME280;2729;50.056;8.678;2022-11-13T09:05:39;101155.34;;;7.23;100.00
5413;BME280;2729;50.056;8.678;2022-11-13T09:08:24;101148.41;;;7.19;100.00
5413;BME280;2729;50.056;8.678;2022-11-13T09:11:08;101136.25;;;7.12;100.00
5413;BME280;2729;50.056;8.678;2022-11-13T09:13:53;101132.88;;;7.36;100.00
5413;BME280;2729;50.056;8.678;2022-11-13T09:16:38;101132.88;;;7.42;100.00
5413;BME280;2729;50.056;8.678;2022-11-13T09:19:22;101132.03;;;7.63;100.00
5413;BME280;2729;50.056;8.678;2022-11-13T09:22:07;101138.97;;;7.71;100.00
5413;BME280;2729;50.056;8.678;2022-11-13T09:24:52;101127.72;;;7.65;100.00
5413;BME280;2729;50.056;8.678;2022-11-13T09:27:36;101130.31;;;7.68;100.00
5413;BME280;2729;50.056;8.678;2022-11-13T09:30:21;101130.34;;;7.82;100.00
5413;BME280;2729;50.056;8.678;2022-11-13T09:33:05;101124.28;;;7.83;100.00
5413;BME280;2729;50.056;8.678;2022-11-13T09:35:49;101118.22;;;8.02;100.00
5413;BME280;2729;50.056;8.678;2022-11-13T09:38:34;101118.22;;;8.00;100.00
5413;BME280;2729;50.056;8.678;2022-11-13T09:41:26;101113.00;;;8.17;100.00
5413;BME280;2729;50.056;8.678;2022-11-13T09:44:18;101114.72;;;8.26;100.00
5413;BME280;2729;50.056;8.678;2022-11-13T09:50:19;101105.16;;;8.49;100.00
5413;BME280;2729;50.056;8.678;2022-11-13T09:53:05;101109.47;;;8.58;100.00
5413;BME280;2729;50.056;8.678;2022-11-13T09:55:58;101097.28;;;8.66;100.00
5413;BME280;2729;50.056;8.678;2022-11-13T09:59:12;101092.97;;;8.62;100.00
5413;BME280;2729;50.056;8.678;2022-11-13T10:05:22;101069.56;;;8.56;100.00
5413;BME280;2729;50.056;8.678;2022-11-13T10:08:12;101077.41;;;8.48;100.00
5413;BME280;2729;50.056;8.678;2022-11-13T10:11:20;101074.75;;;8.59;100.00
5413;BME280;2729;50.056;8.678;2022-11-13T10:17:01;101069.22;;;9.21;100.00
5413;BME280;2729;50.056;8.678;2022-11-13T10:19:57;101072.63;;;9.31;100.00
5413;BME280;2729;50.056;8.678;2022-11-13T10:23:03;101069.84;;;9.54;100.00
5413;BME280;2729;50.056;8.678;2022-11-13T10:25:52;101066.41;;;9.52;100.00
5413;BME280;2729;50.056;8.678;2022-11-13T10:28:39;101057.81;;;9.38;100.00
5413;BME280;2729;50.056;8.678;2022-11-13T10:31:25;101051.63;;;9.54;100.00
5413;BME280;2729;50.056;8.678;2022-11-13T10:34:09;101037.72;;;9.55;100.00
5413;BME280;2729;50.056;8.678;2022-11-13T10:37:12;101033.03;;;9.90;100.00
5413;BME280;2729;50.056;8.678;2022-11-13T10:40:00;101026.16;;;9.82;100.00
5413;BME280;2729;50.056;8.678;2022-11-13T10:42:45;101009.47;;;10.01;100.00
5413;BME280;2729;50.056;8.678;2022-11-13T10:45:29;101003.31;;;10.07;100.00
5413;BME280;2729;50.056;8.678;2022-11-13T10:48:19;101000.63;;;10.13;100.00
5413;BME280;2729;50.056;8.678;2022-11-13T10:51:17;100994.56;;;10.11;100.00
5413;BME280;2729;50.056;8.678;2022-11-13T10:54:22;100981.25;;;10.37;100.00
5413;BME280;2729;50.056;8.678;2022-11-13T10:57:36;100978.38;;;10.58;100.00
5413;BME280;2729;50.056;8.678;2022-11-13T11:00:33;100971.28;;;10.68;100.00
5413;BME280;2729;50.056;8.678;2022-11-13T11:03:20;100954.69;;;10.72;100.00
5413;BME280;2729;50.056;8.678;2022-11-13T11:06:05;100951.81;;;10.90;100.00
5413;BME280;2729;50.056;8.678;2022-11-13T11:08:49;100931.78;;;10.90;100.00
5413;BME280;2729;50.056;8.678;2022-11-13T11:11:34;100927.84;;;11.19;100.00
5413;BME280;2729;50.056;8.678;2022-11-13T11:14:41;100911.41;;;11.12;100.00
5413;BME280;2729;50.056;8.678;2022-11-13T11:20:43;100891.84;;;11.35;100.00
5413;BME280;2729;50.056;8.678;2022-11-13T11:23:38;100880.25;;;11.49;100.00
5413;BME280;2729;50.056;8.678;2022-11-13T11:26:47;100876.50;;;11.63;100.00
5413;BME280;2729;50.056;8.678;2022-11-13T11:29:37;100879.53;;;11.41;100.00
5413;BME280;2729;50.056;8.678;2022-11-13T11:32:35;100884.94;;;11.77;100.00
5413;BME280;2729;50.056;8.678;2022-11-13T11:35:33;100875.13;;;11.89;100.00
5413;BME280;2729;50.056;8.678;2022-11-13T11:38:29;100874.13;;;11.95;100.00
5413;BME280;2729;50.056;8.678;2022-11-13T11:41:18;100879.28;;;11.98;100.00
5413;BME280;2729;50.056;8.678;2022-11-13T11:44:16;100873.63;;;12.18;100.00
5413;BME280;2729;50.056;8.678;2022-11-13T11:47:13;100868.84;;;11.98;100.00
5413;BME280;2729;50.056;8.678;2022-11-13T11:49:58;100856.09;;;12.23;100.00
5413;BME280;2729;50.056;8.678;2022-11-13T11:52:59;100859.22;;;12.39;100.00
5413;BME280;2729;50.056;8.678;2022-11-13T11:55:56;100856.56;;;12.40;100.00
5413;BME280;2729;50.056;8.678;2022-11-13T12:02:20;100845.81;;;12.52;100.00
5413;BME280;2729;50.056;8.678;2022-11-13T12:05:27;100842.22;;;12.56;100.00
5413;BME280;2729;50.056;8.678;2022-11-13T12:08:20;100823.69;;;12.64;100.00
5413;BME280;2729;50.056;8.678;2022-11-13T12:11:26;100817.72;;;12.59;100.00
5413;BME280;2729;50.056;8.678;2022-11-13T12:20:42;100821.75;;;12.72;100.00
5413;BME280;2729;50.056;8.678;2022-11-13T12:30:14;100827.81;;;12.74;100.00
5413;BME280;2729;50.056;8.678;2022-11-13T12:36:17;100817.28;;;12.76;100.00
5413;BME280;2729;50.056;8.678;2022-11-13T12:42:13;100817.84;;;12.88;100.00
5413;BME280;2729;50.056;8.678;2022-11-13T12:48:09;100808.47;;;12.80;100.00
5413;BME280;2729;50.056;8.678;2022-11-13T12:51:07;100816.31;;;12.80;100.00
5413;BME280;2729;50.056;8.678;2022-11-13T12:53:54;100795.50;;;12.74;100.00
5413;BME280;2729;50.056;8.678;2022-11-13T12:56:39;100787.06;;;12.63;100.00
5413;BME280;2729;50.056;8.678;2022-11-13T12:59:33;100782.34;;;12.77;100.00
5413;BME280;2729;50.056;8.678;2022-11-13T13:02:30;100788.28;;;12.83;100.00
5413;BME280;2729;50.056;8.678;2022-11-13T13:05:23;100782.91;;;12.88;100.00
5413;BME280;2729;50.056;8.678;2022-11-13T13:11:59;100769.66;;;12.94;100.00
5413;BME280;2729;50.056;8.678;2022-11-13T13:15:10;100765.19;;;12.98;100.00
5413;BME280;2729;50.056;8.678;2022-11-13T13:23:50;100748.34;;;13.08;100.00
5413;BME280;2729;50.056;8.678;2022-11-13T13:26:43;100736.19;;;13.05;100.00
5413;BME280;2729;50.056;8.678;2022-11-13T13:29:32;100742.09;;;13.13;100.00
5413;BME280;2729;50.056;8.678;2022-11-13T13:32:36;100725.72;;;13.05;100.00
5413;BME280;2729;50.056;8.678;2022-11-13T13:35:36;100722.69;;;13.21;100.00
5413;BME280;2729;50.056;8.678;2022-11-13T13:38:28;100721.88;;;13.18;100.00
5413;BME280;2729;50.056;8.678;2022-11-13T13:41:23;100713.13;;;13.19;100.00
5413;BME280;2729;50.056;8.678;2022-11-13T13:44:25;100711.13;;;13.28;100.00
5413;BME280;2729;50.056;8.678;2022-11-13T13:47:22;100708.72;;;13.20;100.00
5413;BME280;2729;50.056;8.678;2022-11-13T13:50:14;100704.53;;;13.13;100.00
5413;BME280;2729;50.056;8.678;2022-11-13T13:53:00;100709.66;;;12.85;100.00
5413;BME280;2729;50.056;8.678;2022-11-13T13:55:48;100710.13;;;12.99;100.00
5413;BME280;2729;50.056;8.678;2022-11-13T13:58:35;100691.78;;;13.01;100.00
5413;BME280;2729;50.056;8.678;2022-11-13T14:01:31;100684.66;;;13.06;100.00
5413;BME280;2729;50.056;8.678;2022-11-13T14:04:18;100689.03;;;13.05;100.00
5413;BME280;2729;50.056;8.678;2022-11-13T14:07:16;100683.75;;;13.07;100.00
5413;BME280;2729;50.056;8.678;2022-11-13T14:12:56;100680.03;;;13.14;100.00
5413;BME280;2729;50.056;8.678;2022-11-13T14:15:40;100675.47;;;13.22;100.00
5413;BME280;2729;50.056;8.678;2022-11-13T14:18:24;100661.94;;;13.36;100.00
5413;BME280;2729;50.056;8.678;2022-11-13T14:21:18;100668.16;;;13.33;100.00
5413;BME280;2729;50.056;8.678;2022-11-13T14:24:04;100655.41;;;13.21;100.00
5413;BME280;2729;50.056;8.678;2022-11-13T14:26:54;100650.63;;;13.04;100.00
5413;BME280;2729;50.056;8.678;2022-11-13T14:29:45;100648.28;;;12.94;100.00
5413;BME280;2729;50.056;8.678;2022-11-13T14:32:32;100630.94;;;12.89;100.00
5413;BME280;2729;50.056;8.678;2022-11-13T14:35:23;100630.28;;;12.81;100.00
5413;BME280;2729;50.056;8.678;2022-11-13T14:38:23;100624.25;;;12.79;100.00
5413;BME280;2729;50.056;8.678;2022-11-13T14:41:52;100620.53;;;12.86;100.00
5413;BME280;2729;50.056;8.678;2022-11-13T14:44:38;100615.38;;;12.83;100.00
5413;BME280;2729;50.056;8.678;2022-11-13T14:47:27;100619.84;;;12.80;100.00
5413;BME280;2729;50.056;8.678;2022-11-13T14:53:00;100608.97;;;12.64;100.00
5413;BME280;2729;50.056;8.678;2022-11-13T14:55:50;100617.88;;;12.57;100.00
5413;BME280;2729;50.056;8.678;2022-11-13T14:58:40;100616.72;;;12.36;100.00
5413;BME280;2729;50.056;8.678;2022-11-13T15:01:27;100620.31;;;12.32;100.00
5413;BME280;2729;50.056;8.678;2022-11-13T15:04:11;100619.31;;;12.36;100.00
5413;BME280;2729;50.056;8.678;2022-11-13T15:06:58;100624.72;;;12.30;100.00
5413;BME280;2729;50.056;8.678;2022-11-13T15:09:43;100625.28;;;12.09;100.00
5413;BME280;2729;50.056;8.678;2022-11-13T15:12:27;100630.81;;;11.97;100.00
5413;BME280;2729;50.056;8.678;2022-11-13T15:15:24;100622.72;;;11.70;100.00
5413;BME280;2729;50.056;8.678;2022-11-13T15:18:17;100623.84;;;11.60;100.00
5413;BME280;2729;50.056;8.678;2022-11-13T15:21:02;100616.38;;;11.43;100.00
5413;BME280;2729;50.056;8.678;2022-11-13T15:23:47;100621.78;;;11.36;100.00
5413;BME280;2729;50.056;8.678;2022-11-13T15:26:31;100618.75;;;11.15;100.00
5413;BME280;2729;50.056;8.678;2022-11-13T15:29:16;100618.75;;;11.15;100.00
5413;BME280;2729;50.056;8.678;2022-11-13T15:32:00;100622.44;;;11.05;100.00
5413;BME280;2729;50.056;8.678;2022-11-13T15:34:44;100613.59;;;11.12;100.00
5413;BME280;2729;50.056;8.678;2022-11-13T15:37:29;100613.19;;;10.90;100.00
5413;BME280;2729;50.056;8.678;2022-11-13T15:40:14;100610.88;;;10.77;100.00
5413;BME280;2729;50.056;8.678;2022-11-13T15:43:00;100605.88;;;10.65;100.00
5413;BME280;2729;50.056;8.678;2022-11-13T15:45:45;100612.16;;;10.56;100.00
5413;BME280;2729;50.056;8.678;2022-11-13T15:48:29;100615.63;;;10.56;100.00
5413;BME280;2729;50.056;8.678;2022-11-13T15:51:20;100610.66;;;10.43;100.00